Eagle (EGE/KEGE)

Information

Location
Eagle, CO
Local Time
22:29 / 10:29 pm
GMT Time
05:29 / 5:29 am
Gates
Unassigned
No FAA reported delays
METAR KEGE 260450Z 23009KT 10SM SCT055 M06/M11 A2988
TAF KEGE 260415Z 2604/2624 23012KT P6SM VCSH FEW035 OVC060 TEMPO 2604/2606 5SM -SN BR OVC035 FM260700 20004KT P6SM VCSH BKN070 FM261100 VRB03KT P6SM BKN100 AMD LTD TO CLD VIS AND WIND 2605/2613
  • No charts available